sensor_id;sensor_type;location;lat;lon;timestamp;temperature;humidity
4056;DHT22;2043;52.184;8.690;2023-05-07T00:04:24;12.80;99.90
4056;DHT22;2043;52.184;8.690;2023-05-07T00:06:51;12.80;99.90
4056;DHT22;2043;52.184;8.690;2023-05-07T00:09:18;12.90;99.90
4056;DHT22;2043;52.184;8.690;2023-05-07T00:11:45;12.80;99.90
4056;DHT22;2043;52.184;8.690;2023-05-07T00:14:12;12.80;99.90
4056;DHT22;2043;52.184;8.690;2023-05-07T00:16:38;12.80;99.90
4056;DHT22;2043;52.184;8.690;2023-05-07T00:19:05;12.80;99.90
4056;DHT22;2043;52.184;8.690;2023-05-07T00:21:32;12.80;99.90
4056;DHT22;2043;52.184;8.690;2023-05-07T00:23:59;12.70;99.90
4056;DHT22;2043;52.184;8.690;2023-05-07T00:26:25;12.70;99.90
4056;DHT22;2043;52.184;8.690;2023-05-07T00:28:52;12.70;99.90
4056;DHT22;2043;52.184;8.690;2023-05-07T00:33:46;12.60;99.90
4056;DHT22;2043;52.184;8.690;2023-05-07T00:36:13;12.70;99.90
4056;DHT22;2043;52.184;8.690;2023-05-07T00:38:40;12.70;99.90
4056;DHT22;2043;52.184;8.690;2023-05-07T00:41:07;12.70;99.90
4056;DHT22;2043;52.184;8.690;2023-05-07T00:43:34;12.70;99.90
4056;DHT22;2043;52.184;8.690;2023-05-07T00:46:01;12.70;99.90
4056;DHT22;2043;52.184;8.690;2023-05-07T00:48:28;12.70;99.90
4056;DHT22;2043;52.184;8.690;2023-05-07T00:50:55;12.70;99.90
4056;DHT22;2043;52.184;8.690;2023-05-07T00:53:22;12.70;99.90
4056;DHT22;2043;52.184;8.690;2023-05-07T00:55:49;12.70;99.90
4056;DHT22;2043;52.184;8.690;2023-05-07T00:58:16;12.70;99.90
4056;DHT22;2043;52.184;8.690;2023-05-07T01:00:43;12.70;99.90
4056;DHT22;2043;52.184;8.690;2023-05-07T01:03:10;12.70;99.90
4056;DHT22;2043;52.184;8.690;2023-05-07T01:05:37;12.60;99.90
4056;DHT22;2043;52.184;8.690;2023-05-07T01:08:05;12.60;99.90
4056;DHT22;2043;52.184;8.690;2023-05-07T01:10:32;12.60;99.90
4056;DHT22;2043;52.184;8.690;2023-05-07T01:12:59;12.50;99.90
4056;DHT22;2043;52.184;8.690;2023-05-07T01:15:27;12.50;99.90
4056;DHT22;2043;52.184;8.690;2023-05-07T01:17:54;12.50;99.90
4056;DHT22;2043;52.184;8.690;2023-05-07T01:20:22;12.50;99.90
4056;DHT22;2043;52.184;8.690;2023-05-07T01:22:50;12.40;99.90
4056;DHT22;2043;52.184;8.690;2023-05-07T01:25:17;12.40;99.90
4056;DHT22;2043;52.184;8.690;2023-05-07T01:27:44;12.40;99.90
4056;DHT22;2043;52.184;8.690;2023-05-07T01:30:11;12.40;99.90
4056;DHT22;2043;52.184;8.690;2023-05-07T01:32:41;12.40;99.90
4056;DHT22;2043;52.184;8.690;2023-05-07T01:35:15;12.50;99.90
4056;DHT22;2043;52.184;8.690;2023-05-07T01:37:43;12.50;99.90
4056;DHT22;2043;52.184;8.690;2023-05-07T01:40:11;12.50;99.90
4056;DHT22;2043;52.184;8.690;2023-05-07T01:42:39;12.50;99.90
4056;DHT22;2043;52.184;8.690;2023-05-07T01:45:07;12.50;99.90
4056;DHT22;2043;52.184;8.690;2023-05-07T01:47:35;12.50;99.90
4056;DHT22;2043;52.184;8.690;2023-05-07T01:50:04;12.50;99.90
4056;DHT22;2043;52.184;8.690;2023-05-07T01:52:31;12.50;99.90
4056;DHT22;2043;52.184;8.690;2023-05-07T01:54:58;12.50;99.90
4056;DHT22;2043;52.184;8.690;2023-05-07T01:57:25;12.40;99.90
4056;DHT22;2043;52.184;8.690;2023-05-07T01:59:52;12.40;99.90
4056;DHT22;2043;52.184;8.690;2023-05-07T02:02:19;12.40;99.90
4056;DHT22;2043;52.184;8.690;2023-05-07T02:04:45;12.40;99.90
4056;DHT22;2043;52.184;8.690;2023-05-07T02:07:12;12.30;99.90
4056;DHT22;2043;52.184;8.690;2023-05-07T02:09:39;12.30;99.90
4056;DHT22;2043;52.184;8.690;2023-05-07T02:12:06;12.30;99.90
4056;DHT22;2043;52.184;8.690;2023-05-07T02:14:32;12.30;99.90
4056;DHT22;2043;52.184;8.690;2023-05-07T02:16:59;12.30;99.90
4056;DHT22;2043;52.184;8.690;2023-05-07T02:19:26;12.30;99.90
4056;DHT22;2043;52.184;8.690;2023-05-07T02:21:53;12.30;99.90
4056;DHT22;2043;52.184;8.690;2023-05-07T02:24:19;12.30;99.90
4056;DHT22;2043;52.184;8.690;2023-05-07T02:26:46;12.20;99.90
4056;DHT22;2043;52.184;8.690;2023-05-07T02:29:13;12.20;99.90
4056;DHT22;2043;52.184;8.690;2023-05-07T02:31:40;12.20;99.90
4056;DHT22;2043;52.184;8.690;2023-05-07T02:34:07;12.20;99.90
4056;DHT22;2043;52.184;8.690;2023-05-07T02:36:33;12.20;99.90
4056;DHT22;2043;52.184;8.690;2023-05-07T02:39:00;12.10;99.90
4056;DHT22;2043;52.184;8.690;2023-05-07T02:41:27;12.10;99.90
4056;DHT22;2043;52.184;8.690;2023-05-07T02:43:54;12.00;99.90
4056;DHT22;2043;52.184;8.690;2023-05-07T02:48:48;12.00;99.90
4056;DHT22;2043;52.184;8.690;2023-05-07T02:51:20;12.00;99.90
4056;DHT22;2043;52.184;8.690;2023-05-07T02:53:50;12.00;99.90
4056;DHT22;2043;52.184;8.690;2023-05-07T02:56:17;12.00;99.90
4056;DHT22;2043;52.184;8.690;2023-05-07T02:58:44;12.00;99.90
4056;DHT22;2043;52.184;8.690;2023-05-07T03:01:11;12.00;99.90
4056;DHT22;2043;52.184;8.690;2023-05-07T03:03:38;11.90;99.90
4056;DHT22;2043;52.184;8.690;2023-05-07T03:06:05;11.80;99.90
4056;DHT22;2043;52.184;8.690;2023-05-07T03:08:33;11.90;99.90
4056;DHT22;2043;52.184;8.690;2023-05-07T03:11:00;11.90;99.90
4056;DHT22;2043;52.184;8.690;2023-05-07T03:13:27;11.90;99.90
4056;DHT22;2043;52.184;8.690;2023-05-07T03:15:53;11.80;99.90
4056;DHT22;2043;52.184;8.690;2023-05-07T03:18:20;11.80;99.90
4056;DHT22;2043;52.184;8.690;2023-05-07T03:20:48;11.80;99.90
4056;DHT22;2043;52.184;8.690;2023-05-07T03:23:15;11.80;99.90
4056;DHT22;2043;52.184;8.690;2023-05-07T03:25:42;11.80;99.90
4056;DHT22;2043;52.184;8.690;2023-05-07T03:28:08;11.80;99.90
4056;DHT22;2043;52.184;8.690;2023-05-07T03:30:35;11.80;99.90
4056;DHT22;2043;52.184;8.690;2023-05-07T03:33:02;11.80;99.90
4056;DHT22;2043;52.184;8.690;2023-05-07T03:35:29;11.80;99.90
4056;DHT22;2043;52.184;8.690;2023-05-07T03:37:55;11.80;99.90
4056;DHT22;2043;52.184;8.690;2023-05-07T03:40:22;11.70;99.90
4056;DHT22;2043;52.184;8.690;2023-05-07T03:42:49;11.70;99.90
4056;DHT22;2043;52.184;8.690;2023-05-07T03:45:16;11.70;99.90
4056;DHT22;2043;52.184;8.690;2023-05-07T03:47:43;11.70;99.90
4056;DHT22;2043;52.184;8.690;2023-05-07T03:50:09;11.70;99.90
4056;DHT22;2043;52.184;8.690;2023-05-07T03:52:37;11.70;99.90
4056;DHT22;2043;52.184;8.690;2023-05-07T03:55:04;11.70;99.90
4056;DHT22;2043;52.184;8.690;2023-05-07T03:57:32;11.70;99.90
4056;DHT22;2043;52.184;8.690;2023-05-07T03:59:59;11.70;99.90
4056;DHT22;2043;52.184;8.690;2023-05-07T04:02:26;11.70;99.90
4056;DHT22;2043;52.184;8.690;2023-05-07T04:04:53;11.70;99.90
4056;DHT22;2043;52.184;8.690;2023-05-07T04:07:21;11.70;99.90
4056;DHT22;2043;52.184;8.690;2023-05-07T04:09:47;11.60;99.90
4056;DHT22;2043;52.184;8.690;2023-05-07T04:12:15;11.70;99.90
4056;DHT22;2043;52.184;8.690;2023-05-07T04:14:41;11.70;99.90
4056;DHT22;2043;52.184;8.690;2023-05-07T04:17:08;11.70;99.90
4056;DHT22;2043;52.184;8.690;2023-05-07T04:19:37;11.70;99.90
4056;DHT22;2043;52.184;8.690;2023-05-07T04:22:03;11.70;99.90
4056;DHT22;2043;52.184;8.690;2023-05-07T04:24:33;11.70;99.90
4056;DHT22;2043;52.184;8.690;2023-05-07T04:27:00;11.70;99.90
4056;DHT22;2043;52.184;8.690;2023-05-07T04:29:26;11.80;99.90
4056;DHT22;2043;52.184;8.690;2023-05-07T04:31:53;11.80;99.90
4056;DHT22;2043;52.184;8.690;2023-05-07T04:34:22;11.80;99.90
4056;DHT22;2043;52.184;8.690;2023-05-07T04:36:49;11.80;99.90
4056;DHT22;2043;52.184;8.690;2023-05-07T04:39:16;11.90;99.90
4056;DHT22;2043;52.184;8.690;2023-05-07T04:41:42;11.90;99.90
4056;DHT22;2043;52.184;8.690;2023-05-07T04:44:09;11.90;99.90
4056;DHT22;2043;52.184;8.690;2023-05-07T04:46:37;11.90;99.90
4056;DHT22;2043;52.184;8.690;2023-05-07T04:49:04;11.80;99.90
4056;DHT22;2043;52.184;8.690;2023-05-07T04:51:32;11.80;99.90
4056;DHT22;2043;52.184;8.690;2023-05-07T04:53:59;11.80;99.90
4056;DHT22;2043;52.184;8.690;2023-05-07T04:56:28;11.80;99.90
4056;DHT22;2043;52.184;8.690;2023-05-07T04:58:55;11.80;99.90
4056;DHT22;2043;52.184;8.690;2023-05-07T05:01:22;11.90;99.90
4056;DHT22;2043;52.184;8.690;2023-05-07T05:06:16;11.90;99.90
4056;DHT22;2043;52.184;8.690;2023-05-07T05:08:43;11.90;99.90
4056;DHT22;2043;52.184;8.690;2023-05-07T05:11:10;11.90;99.90
4056;DHT22;2043;52.184;8.690;2023-05-07T05:13:37;11.80;99.90
4056;DHT22;2043;52.184;8.690;2023-05-07T05:16:04;11.80;99.90
4056;DHT22;2043;52.184;8.690;2023-05-07T05:18:31;11.90;99.90
4056;DHT22;2043;52.184;8.690;2023-05-07T05:20:57;11.90;99.90
4056;DHT22;2043;52.184;8.690;2023-05-07T05:23:24;11.90;99.90
4056;DHT22;2043;52.184;8.690;2023-05-07T05:25:55;12.00;99.90
4056;DHT22;2043;52.184;8.690;2023-05-07T05:28:23;11.90;99.90
4056;DHT22;2043;52.184;8.690;2023-05-07T05:30:50;11.90;99.90
4056;DHT22;2043;52.184;8.690;2023-05-07T05:33:17;12.00;99.90
4056;DHT22;2043;52.184;8.690;2023-05-07T05:35:43;12.00;99.90
4056;DHT22;2043;52.184;8.690;2023-05-07T05:38:10;12.00;99.90
4056;DHT22;2043;52.184;8.690;2023-05-07T05:40:37;12.00;99.90
4056;DHT22;2043;52.184;8.690;2023-05-07T05:43:04;12.10;99.90
4056;DHT22;2043;52.184;8.690;2023-05-07T05:45:30;12.10;99.90
4056;DHT22;2043;52.184;8.690;2023-05-07T05:47:57;12.20;99.90
4056;DHT22;2043;52.184;8.690;2023-05-07T05:50:24;12.20;99.90
4056;DHT22;2043;52.184;8.690;2023-05-07T05:52:51;12.20;99.90
4056;DHT22;2043;52.184;8.690;2023-05-07T05:55:18;12.20;99.90
4056;DHT22;2043;52.184;8.690;2023-05-07T05:57:45;12.20;99.90
4056;DHT22;2043;52.184;8.690;2023-05-07T06:00:12;12.20;99.90
4056;DHT22;2043;52.184;8.690;2023-05-07T06:02:40;12.20;99.90
4056;DHT22;2043;52.184;8.690;2023-05-07T06:05:07;12.20;99.90
4056;DHT22;2043;52.184;8.690;2023-05-07T06:07:34;12.20;99.90
4056;DHT22;2043;52.184;8.690;2023-05-07T06:10:01;12.10;99.90
4056;DHT22;2043;52.184;8.690;2023-05-07T06:12:28;12.20;99.90
4056;DHT22;2043;52.184;8.690;2023-05-07T06:14:55;12.20;99.90
4056;DHT22;2043;52.184;8.690;2023-05-07T06:17:21;12.30;99.90
4056;DHT22;2043;52.184;8.690;2023-05-07T06:19:48;12.30;99.90
4056;DHT22;2043;52.184;8.690;2023-05-07T06:22:15;12.30;99.90
4056;DHT22;2043;52.184;8.690;2023-05-07T06:24:42;12.40;99.90
4056;DHT22;2043;52.184;8.690;2023-05-07T06:27:09;12.40;99.90
4056;DHT22;2043;52.184;8.690;2023-05-07T06:29:36;12.40;99.90
4056;DHT22;2043;52.184;8.690;2023-05-07T06:32:12;12.50;99.90
4056;DHT22;2043;52.184;8.690;2023-05-07T06:34:40;12.60;99.90
4056;DHT22;2043;52.184;8.690;2023-05-07T06:37:07;12.60;99.90
4056;DHT22;2043;52.184;8.690;2023-05-07T06:39:34;12.70;99.90
4056;DHT22;2043;52.184;8.690;2023-05-07T06:42:01;12.70;99.90
4056;DHT22;2043;52.184;8.690;2023-05-07T06:44:31;12.70;99.90
4056;DHT22;2043;52.184;8.690;2023-05-07T06:46:58;12.70;99.90
4056;DHT22;2043;52.184;8.690;2023-05-07T06:49:25;12.70;99.90
4056;DHT22;2043;52.184;8.690;2023-05-07T06:51:52;12.70;99.90
4056;DHT22;2043;52.184;8.690;2023-05-07T06:54:19;12.70;99.90
4056;DHT22;2043;52.184;8.690;2023-05-07T06:56:46;12.70;99.90
4056;DHT22;2043;52.184;8.690;2023-05-07T06:59:13;12.80;99.90
4056;DHT22;2043;52.184;8.690;2023-05-07T07:01:40;12.80;99.90
4056;DHT22;2043;52.184;8.690;2023-05-07T07:04:07;12.80;99.90
4056;DHT22;2043;52.184;8.690;2023-05-07T07:06:34;12.90;99.90
4056;DHT22;2043;52.184;8.690;2023-05-07T07:09:01;12.90;99.90
4056;DHT22;2043;52.184;8.690;2023-05-07T07:11:27;12.90;99.90
4056;DHT22;2043;52.184;8.690;2023-05-07T07:13:54;12.90;99.90
4056;DHT22;2043;52.184;8.690;2023-05-07T07:16:21;12.90;99.90
4056;DHT22;2043;52.184;8.690;2023-05-07T07:18:48;13.00;99.90
4056;DHT22;2043;52.184;8.690;2023-05-07T07:21:15;13.00;99.90
4056;DHT22;2043;52.184;8.690;2023-05-07T07:23:42;13.00;99.90
4056;DHT22;2043;52.184;8.690;2023-05-07T07:26:09;13.10;99.90
4056;DHT22;2043;52.184;8.690;2023-05-07T07:28:42;13.20;99.90
4056;DHT22;2043;52.184;8.690;2023-05-07T07:31:11;13.20;99.90
4056;DHT22;2043;52.184;8.690;2023-05-07T07:33:38;13.50;99.90
4056;DHT22;2043;52.184;8.690;2023-05-07T07:36:06;13.60;99.90
4056;DHT22;2043;52.184;8.690;2023-05-07T07:38:33;13.70;99.40
4056;DHT22;2043;52.184;8.690;2023-05-07T07:41:01;13.80;99.30
4056;DHT22;2043;52.184;8.690;2023-05-07T07:43:28;13.80;99.20
4056;DHT22;2043;52.184;8.690;2023-05-07T07:45:55;13.90;99.30
4056;DHT22;2043;52.184;8.690;2023-05-07T07:48:22;13.90;99.20
4056;DHT22;2043;52.184;8.690;2023-05-07T07:50:49;13.90;99.40
4056;DHT22;2043;52.184;8.690;2023-05-07T07:53:18;13.90;98.40
4056;DHT22;2043;52.184;8.690;2023-05-07T07:55:45;13.90;98.90
4056;DHT22;2043;52.184;8.690;2023-05-07T07:58:12;13.80;98.40
4056;DHT22;2043;52.184;8.690;2023-05-07T08:00:39;13.90;98.50
4056;DHT22;2043;52.184;8.690;2023-05-07T08:03:05;13.90;98.20
4056;DHT22;2043;52.184;8.690;2023-05-07T08:05:34;13.90;98.00
4056;DHT22;2043;52.184;8.690;2023-05-07T08:08:01;14.00;98.10
4056;DHT22;2043;52.184;8.690;2023-05-07T08:10:27;14.00;98.10
4056;DHT22;2043;52.184;8.690;2023-05-07T08:12:54;14.10;97.80
4056;DHT22;2043;52.184;8.690;2023-05-07T08:15:21;14.20;98.00
4056;DHT22;2043;52.184;8.690;2023-05-07T08:17:48;14.30;97.20
4056;DHT22;2043;52.184;8.690;2023-05-07T08:20:15;14.30;97.20
4056;DHT22;2043;52.184;8.690;2023-05-07T08:22:41;14.70;96.90
4056;DHT22;2043;52.184;8.690;2023-05-07T08:25:09;14.70;96.30
4056;DHT22;2043;52.184;8.690;2023-05-07T08:27:35;14.70;96.30
4056;DHT22;2043;52.184;8.690;2023-05-07T08:30:03;14.50;96.40
4056;DHT22;2043;52.184;8.690;2023-05-07T08:32:30;14.70;96.00
4056;DHT22;2043;52.184;8.690;2023-05-07T08:34:56;14.60;95.70
4056;DHT22;2043;52.184;8.690;2023-05-07T08:37:23;14.70;95.70
4056;DHT22;2043;52.184;8.690;2023-05-07T08:39:50;14.70;95.50
4056;DHT22;2043;52.184;8.690;2023-05-07T08:42:17;14.70;95.50
4056;DHT22;2043;52.184;8.690;2023-05-07T08:44:45;14.70;95.70
4056;DHT22;2043;52.184;8.690;2023-05-07T08:47:13;14.70;95.90
4056;DHT22;2043;52.184;8.690;2023-05-07T08:52:07;14.90;95.70
4056;DHT22;2043;52.184;8.690;2023-05-07T08:54:37;15.00;95.40
4056;DHT22;2043;52.184;8.690;2023-05-07T08:57:04;15.20;95.50
4056;DHT22;2043;52.184;8.690;2023-05-07T08:59:30;15.40;95.00
4056;DHT22;2043;52.184;8.690;2023-05-07T09:01:57;15.50;94.40
4056;DHT22;2043;52.184;8.690;2023-05-07T09:04:24;15.70;93.50
4056;DHT22;2043;52.184;8.690;2023-05-07T09:06:51;15.80;93.20
4056;DHT22;2043;52.184;8.690;2023-05-07T09:09:18;15.90;92.30
4056;DHT22;2043;52.184;8.690;2023-05-07T09:11:45;15.70;92.90
4056;DHT22;2043;52.184;8.690;2023-05-07T09:14:12;15.70;92.70
4056;DHT22;2043;52.184;8.690;2023-05-07T09:16:39;15.80;92.70
4056;DHT22;2043;52.184;8.690;2023-05-07T09:19:06;16.00;92.80
4056;DHT22;2043;52.184;8.690;2023-05-07T09:24:00;16.00;92.10
4056;DHT22;2043;52.184;8.690;2023-05-07T09:26:27;16.10;92.20
4056;DHT22;2043;52.184;8.690;2023-05-07T09:28:54;16.10;92.30
4056;DHT22;2043;52.184;8.690;2023-05-07T09:31:21;16.40;91.80
4056;DHT22;2043;52.184;8.690;2023-05-07T09:33:50;16.60;91.50
4056;DHT22;2043;52.184;8.690;2023-05-07T09:36:17;16.70;91.50
4056;DHT22;2043;52.184;8.690;2023-05-07T09:38:45;16.70;89.80
4056;DHT22;2043;52.184;8.690;2023-05-07T09:41:12;16.70;90.60
4056;DHT22;2043;52.184;8.690;2023-05-07T09:43:40;16.60;90.90
4056;DHT22;2043;52.184;8.690;2023-05-07T09:46:11;16.60;90.80
4056;DHT22;2043;52.184;8.690;2023-05-07T09:48:40;16.40;90.90
4056;DHT22;2043;52.184;8.690;2023-05-07T09:51:30;16.30;91.60
4056;DHT22;2043;52.184;8.690;2023-05-07T09:54:02;16.60;91.20
4056;DHT22;2043;52.184;8.690;2023-05-07T09:56:30;16.70;90.50
4056;DHT22;2043;52.184;8.690;2023-05-07T09:59:00;16.70;90.50
4056;DHT22;2043;52.184;8.690;2023-05-07T10:01:27;16.70;90.50
4056;DHT22;2043;52.184;8.690;2023-05-07T10:03:55;16.70;90.40
4056;DHT22;2043;52.184;8.690;2023-05-07T10:06:24;16.70;90.30
4056;DHT22;2043;52.184;8.690;2023-05-07T10:08:52;16.90;90.20
4056;DHT22;2043;52.184;8.690;2023-05-07T10:11:21;16.90;90.20
4056;DHT22;2043;52.184;8.690;2023-05-07T10:13:48;17.00;90.10
4056;DHT22;2043;52.184;8.690;2023-05-07T10:16:17;16.90;90.20
4056;DHT22;2043;52.184;8.690;2023-05-07T10:18:45;16.90;90.80
4056;DHT22;2043;52.184;8.690;2023-05-07T10:21:19;17.10;89.90
4056;DHT22;2043;52.184;8.690;2023-05-07T10:23:53;17.20;89.20
4056;DHT22;2043;52.184;8.690;2023-05-07T10:26:23;17.20;89.30
4056;DHT22;2043;52.184;8.690;2023-05-07T10:28:56;17.30;89.10
4056;DHT22;2043;52.184;8.690;2023-05-07T10:31:38;17.30;89.50
4056;DHT22;2043;52.184;8.690;2023-05-07T10:34:13;17.40;89.40
4056;DHT22;2043;52.184;8.690;2023-05-07T10:36:43;17.30;89.90
4056;DHT22;2043;52.184;8.690;2023-05-07T10:39:11;17.30;90.00
4056;DHT22;2043;52.184;8.690;2023-05-07T10:41:39;17.30;89.60
4056;DHT22;2043;52.184;8.690;2023-05-07T10:44:06;17.10;89.90
4056;DHT22;2043;52.184;8.690;2023-05-07T10:46:32;17.10;90.30
4056;DHT22;2043;52.184;8.690;2023-05-07T10:51:33;17.10;90.40
4056;DHT22;2043;52.184;8.690;2023-05-07T10:56:37;17.30;90.30
4056;DHT22;2043;52.184;8.690;2023-05-07T11:02:04;17.50;89.30
4056;DHT22;2043;52.184;8.690;2023-05-07T11:04:33;17.50;89.30
4056;DHT22;2043;52.184;8.690;2023-05-07T11:15:09;18.10;88.40
4056;DHT22;2043;52.184;8.690;2023-05-07T11:17:54;18.10;88.10
4056;DHT22;2043;52.184;8.690;2023-05-07T11:20:43;17.90;88.40
4056;DHT22;2043;52.184;8.690;2023-05-07T11:26:07;17.80;89.10
4056;DHT22;2043;52.184;8.690;2023-05-07T11:28:39;18.00;88.30
4056;DHT22;2043;52.184;8.690;2023-05-07T11:31:07;18.40;87.70
4056;DHT22;2043;52.184;8.690;2023-05-07T11:33:35;18.40;88.00
4056;DHT22;2043;52.184;8.690;2023-05-07T11:36:03;18.40;88.00
4056;DHT22;2043;52.184;8.690;2023-05-07T11:38:30;18.60;87.20
4056;DHT22;2043;52.184;8.690;2023-05-07T11:40:59;18.60;87.20
4056;DHT22;2043;52.184;8.690;2023-05-07T11:43:34;19.00;86.20
4056;DHT22;2043;52.184;8.690;2023-05-07T11:46:09;18.90;86.50
4056;DHT22;2043;52.184;8.690;2023-05-07T11:48:37;18.80;86.60
4056;DHT22;2043;52.184;8.690;2023-05-07T11:51:06;18.90;87.00
4056;DHT22;2043;52.184;8.690;2023-05-07T11:53:37;18.80;86.30
4056;DHT22;2043;52.184;8.690;2023-05-07T11:56:08;18.80;86.30
4056;DHT22;2043;52.184;8.690;2023-05-07T11:58:36;18.90;86.80
4056;DHT22;2043;52.184;8.690;2023-05-07T12:01:03;19.10;86.10
4056;DHT22;2043;52.184;8.690;2023-05-07T12:03:30;19.20;85.60
4056;DHT22;2043;52.184;8.690;2023-05-07T12:06:01;19.10;85.80
4056;DHT22;2043;52.184;8.690;2023-05-07T12:08:28;19.00;85.80
4056;DHT22;2043;52.184;8.690;2023-05-07T12:10:55;18.80;86.40
4056;DHT22;2043;52.184;8.690;2023-05-07T12:13:24;18.70;86.90
4056;DHT22;2043;52.184;8.690;2023-05-07T12:15:53;18.70;86.70
4056;DHT22;2043;52.184;8.690;2023-05-07T12:18:22;18.60;86.90
4056;DHT22;2043;52.184;8.690;2023-05-07T12:20:50;18.70;87.00
4056;DHT22;2043;52.184;8.690;2023-05-07T12:23:17;18.70;87.00
4056;DHT22;2043;52.184;8.690;2023-05-07T12:25:44;18.70;87.10
4056;DHT22;2043;52.184;8.690;2023-05-07T12:28:15;18.80;86.50
4056;DHT22;2043;52.184;8.690;2023-05-07T12:30:43;18.80;86.50
4056;DHT22;2043;52.184;8.690;2023-05-07T12:33:10;18.80;86.70
4056;DHT22;2043;52.184;8.690;2023-05-07T12:35:41;18.80;86.70
4056;DHT22;2043;52.184;8.690;2023-05-07T12:38:18;18.90;86.60
4056;DHT22;2043;52.184;8.690;2023-05-07T12:40:50;18.90;85.90
4056;DHT22;2043;52.184;8.690;2023-05-07T12:43:28;18.90;86.00
4056;DHT22;2043;52.184;8.690;2023-05-07T12:45:57;18.90;86.40
4056;DHT22;2043;52.184;8.690;2023-05-07T12:48:24;18.70;86.30
4056;DHT22;2043;52.184;8.690;2023-05-07T12:50:54;18.70;86.30
4056;DHT22;2043;52.184;8.690;2023-05-07T12:53:23;18.60;86.50
4056;DHT22;2043;52.184;8.690;2023-05-07T12:55:53;18.50;87.00
4056;DHT22;2043;52.184;8.690;2023-05-07T13:00:51;18.40;87.50
4056;DHT22;2043;52.184;8.690;2023-05-07T13:03:33;18.50;87.10
4056;DHT22;2043;52.184;8.690;2023-05-07T13:06:08;18.50;87.10
4056;DHT22;2043;52.184;8.690;2023-05-07T13:08:42;18.30;87.30
4056;DHT22;2043;52.184;8.690;2023-05-07T13:11:12;18.30;87.30
4056;DHT22;2043;52.184;8.690;2023-05-07T13:13:40;18.40;87.60
4056;DHT22;2043;52.184;8.690;2023-05-07T13:16:09;18.50;87.20
4056;DHT22;2043;52.184;8.690;2023-05-07T13:18:38;18.40;87.00
4056;DHT22;2043;52.184;8.690;2023-05-07T13:21:05;18.30;87.30
4056;DHT22;2043;52.184;8.690;2023-05-07T13:23:32;18.30;87.70
4056;DHT22;2043;52.184;8.690;2023-05-07T13:25:59;18.30;87.70
4056;DHT22;2043;52.184;8.690;2023-05-07T13:28:29;18.10;88.10
4056;DHT22;2043;52.184;8.690;2023-05-07T13:30:56;18.10;88.20
4056;DHT22;2043;52.184;8.690;2023-05-07T13:33:23;18.10;88.40
4056;DHT22;2043;52.184;8.690;2023-05-07T13:38:17;18.00;88.30
4056;DHT22;2043;52.184;8.690;2023-05-07T13:40:44;18.00;88.40
4056;DHT22;2043;52.184;8.690;2023-05-07T13:43:11;17.90;88.70
4056;DHT22;2043;52.184;8.690;2023-05-07T13:45:38;18.00;88.30
4056;DHT22;2043;52.184;8.690;2023-05-07T13:48:05;18.10;88.20
4056;DHT22;2043;52.184;8.690;2023-05-07T13:50:32;18.10;88.20
4056;DHT22;2043;52.184;8.690;2023-05-07T13:52:59;18.00;88.40
4056;DHT22;2043;52.184;8.690;2023-05-07T13:55:25;18.20;88.70
4056;DHT22;2043;52.184;8.690;2023-05-07T13:57:59;18.30;88.70
4056;DHT22;2043;52.184;8.690;2023-05-07T14:00:27;18.50;88.40
4056;DHT22;2043;52.184;8.690;2023-05-07T14:02:55;18.50;87.10
4056;DHT22;2043;52.184;8.690;2023-05-07T14:05:22;18.10;87.50
4056;DHT22;2043;52.184;8.690;2023-05-07T14:07:51;18.00;88.00
4056;DHT22;2043;52.184;8.690;2023-05-07T14:10:19;18.30;88.50
4056;DHT22;2043;52.184;8.690;2023-05-07T14:12:46;18.60;87.60
4056;DHT22;2043;52.184;8.690;2023-05-07T14:15:14;18.90;86.70
4056;DHT22;2043;52.184;8.690;2023-05-07T14:17:41;18.90;86.60
4056;DHT22;2043;52.184;8.690;2023-05-07T14:20:08;19.50;85.20
4056;DHT22;2043;52.184;8.690;2023-05-07T14:22:37;19.60;85.00
4056;DHT22;2043;52.184;8.690;2023-05-07T14:25:04;19.60;85.30
4056;DHT22;2043;52.184;8.690;2023-05-07T14:27:33;19.70;85.40
4056;DHT22;2043;52.184;8.690;2023-05-07T14:29:59;19.70;85.50
4056;DHT22;2043;52.184;8.690;2023-05-07T14:32:26;19.40;85.90
4056;DHT22;2043;52.184;8.690;2023-05-07T14:34:53;19.50;85.20
4056;DHT22;2043;52.184;8.690;2023-05-07T14:37:20;19.50;85.60
4056;DHT22;2043;52.184;8.690;2023-05-07T14:39:47;19.50;85.00
4056;DHT22;2043;52.184;8.690;2023-05-07T14:42:16;19.30;84.60
4056;DHT22;2043;52.184;8.690;2023-05-07T14:44:43;19.10;85.70
4056;DHT22;2043;52.184;8.690;2023-05-07T14:47:13;19.00;85.60
4056;DHT22;2043;52.184;8.690;2023-05-07T14:49:39;19.10;85.00
4056;DHT22;2043;52.184;8.690;2023-05-07T14:52:07;19.00;85.30
4056;DHT22;2043;52.184;8.690;2023-05-07T14:54:37;19.00;85.30
4056;DHT22;2043;52.184;8.690;2023-05-07T14:57:05;18.70;85.80
4056;DHT22;2043;52.184;8.690;2023-05-07T14:59:33;18.60;85.80
4056;DHT22;2043;52.184;8.690;2023-05-07T15:02:00;18.30;87.10
4056;DHT22;2043;52.184;8.690;2023-05-07T15:04:31;18.40;87.20
4056;DHT22;2043;52.184;8.690;2023-05-07T15:06:57;18.40;88.00
4056;DHT22;2043;52.184;8.690;2023-05-07T15:09:24;18.50;88.00
4056;DHT22;2043;52.184;8.690;2023-05-07T15:11:51;18.50;88.00
4056;DHT22;2043;52.184;8.690;2023-05-07T15:14:18;18.50;88.00
4056;DHT22;2043;52.184;8.690;2023-05-07T15:16:45;18.40;88.40
4056;DHT22;2043;52.184;8.690;2023-05-07T15:19:12;18.40;87.70
4056;DHT22;2043;52.184;8.690;2023-05-07T15:24:08;18.50;87.80
4056;DHT22;2043;52.184;8.690;2023-05-07T15:26:36;18.50;87.30
4056;DHT22;2043;52.184;8.690;2023-05-07T15:29:02;18.50;87.40
4056;DHT22;2043;52.184;8.690;2023-05-07T15:31:34;18.50;87.50
4056;DHT22;2043;52.184;8.690;2023-05-07T15:34:01;18.50;87.50
4056;DHT22;2043;52.184;8.690;2023-05-07T15:36:28;18.20;87.30
4056;DHT22;2043;52.184;8.690;2023-05-07T15:38:55;18.20;87.40
4056;DHT22;2043;52.184;8.690;2023-05-07T15:41:22;18.20;88.50
4056;DHT22;2043;52.184;8.690;2023-05-07T15:43:50;18.20;88.20
4056;DHT22;2043;52.184;8.690;2023-05-07T15:46:23;18.30;87.60
4056;DHT22;2043;52.184;8.690;2023-05-07T15:48:51;18.30;87.60
4056;DHT22;2043;52.184;8.690;2023-05-07T15:51:19;18.20;87.80
4056;DHT22;2043;52.184;8.690;2023-05-07T15:53:46;18.20;87.90
4056;DHT22;2043;52.184;8.690;2023-05-07T15:56:13;18.20;87.90
4056;DHT22;2043;52.184;8.690;2023-05-07T15:58:40;18.30;87.80
4056;DHT22;2043;52.184;8.690;2023-05-07T16:01:07;18.30;87.70
4056;DHT22;2043;52.184;8.690;2023-05-07T16:03:34;18.10;88.00
4056;DHT22;2043;52.184;8.690;2023-05-07T16:06:01;17.90;88.00
4056;DHT22;2043;52.184;8.690;2023-05-07T16:08:28;17.90;88.30
4056;DHT22;2043;52.184;8.690;2023-05-07T16:10:55;17.90;88.50
4056;DHT22;2043;52.184;8.690;2023-05-07T16:13:22;17.70;88.50
4056;DHT22;2043;52.184;8.690;2023-05-07T16:15:59;17.70;88.80
4056;DHT22;2043;52.184;8.690;2023-05-07T16:18:26;17.60;88.70
4056;DHT22;2043;52.184;8.690;2023-05-07T16:20:53;17.60;88.70
4056;DHT22;2043;52.184;8.690;2023-05-07T16:23:20;17.40;88.90
4056;DHT22;2043;52.184;8.690;2023-05-07T16:25:48;17.40;89.10
4056;DHT22;2043;52.184;8.690;2023-05-07T16:28:15;17.40;89.50
4056;DHT22;2043;52.184;8.690;2023-05-07T16:30:42;17.40;89.40
4056;DHT22;2043;52.184;8.690;2023-05-07T16:33:09;17.40;89.40
4056;DHT22;2043;52.184;8.690;2023-05-07T16:35:36;17.40;89.40
4056;DHT22;2043;52.184;8.690;2023-05-07T16:38:03;17.30;89.40
4056;DHT22;2043;52.184;8.690;2023-05-07T16:40:39;17.30;89.40
4056;DHT22;2043;52.184;8.690;2023-05-07T16:43:05;17.20;89.50
4056;DHT22;2043;52.184;8.690;2023-05-07T16:45:33;17.20;89.50
4056;DHT22;2043;52.184;8.690;2023-05-07T16:47:59;17.10;89.40